Time;durP1;ratioP1;P1;durP2;ratioP2;P2;SDS_P1;SDS_P2;PMS_P1;PMS_P2;Temp;Humidity;BMP_temperature;BMP_pressure;BME280_temperature;BME280_humidity;BME280_pressure;Samples;Min_cycle;Max_cycle;Signal;HPM_P1;HPM_P2
2023/10/06 00:01:42;;;;;;;481.10;121.85;;;;;;;;;;5035760;28;20118;-55
2023/10/06 00:04:08;;;;;;;419.48;116.20;;;;;;;;;;5037148;28;20040;-56
2023/10/06 00:06:37;;;;;;;427.88;114.35;;;;;;;;;;5034974;28;20034;-55
2023/10/06 00:09:06;;;;;;;471.17;116.88;;;;;;;;;;5035814;28;20029;-54
2023/10/06 00:11:31;;;;;;;445.80;117.20;;;;;;;;;;5034986;28;20494;-57
2023/10/06 00:14:07;;;;;;;434.55;118.05;;;;;;;;;;5036107;28;20029;-58
2023/10/06 00:16:38;;;;;;;420.02;118.30;;;;;;;;;;5035556;28;20563;-54
2023/10/06 00:19:19;;;;;;;458.80;117.18;;;;;;;;;;5036517;28;20035;-55
2023/10/06 00:21:47;;;;;;;465.33;118.45;;;;;;;;;;5035132;28;20045;-56
2023/10/06 00:24:12;;;;;;;436.05;118.10;;;;;;;;;;5036021;28;20075;-55
2023/10/06 00:26:37;;;;;;;461.13;119.20;;;;;;;;;;5035285;28;20561;-57
2023/10/06 00:29:09;;;;;;;391.15;114.75;;;;;;;;;;5037389;28;20361;-54
2023/10/06 00:31:35;;;;;;;506.27;120.03;;;;;;;;;;5035078;28;20033;-55
2023/10/06 00:34:00;;;;;;;403.60;115.15;;;;;;;;;;5036069;28;20029;-56
2023/10/06 00:36:29;;;;;;;372.27;114.93;;;;;;;;;;5036434;28;20079;-56
2023/10/06 00:38:54;;;;;;;442.60;119.60;;;;;;;;;;5036079;28;20060;-55
2023/10/06 00:41:23;;;;;;;384.63;115.63;;;;;;;;;;5035914;28;20052;-56
2023/10/06 00:43:49;;;;;;;447.83;118.07;;;;;;;;;;5036182;28;20037;-56
2023/10/06 00:46:15;;;;;;;414.33;116.03;;;;;;;;;;5036314;28;20310;-56
2023/10/06 00:48:40;;;;;;;455.55;119.22;;;;;;;;;;5036094;28;20029;-56
2023/10/06 00:51:09;;;;;;;444.87;119.20;;;;;;;;;;5036000;28;20380;-56
2023/10/06 00:53:34;;;;;;;470.35;120.00;;;;;;;;;;5035967;28;20365;-56
2023/10/06 00:56:02;;;;;;;405.23;117.78;;;;;;;;;;5035465;28;20395;-55
2023/10/06 00:58:33;;;;;;;385.83;116.28;;;;;;;;;;5036923;28;20059;-54
2023/10/06 01:00:59;;;;;;;425.58;117.30;;;;;;;;;;5035941;28;20110;-57
2023/10/06 01:03:25;;;;;;;445.23;119.63;;;;;;;;;;5036149;28;20722;-56
2023/10/06 01:05:51;;;;;;;452.75;118.28;;;;;;;;;;5034593;28;20060;-56
2023/10/06 01:08:16;;;;;;;435.67;117.18;;;;;;;;;;5035570;28;20052;-55
2023/10/06 01:10:41;;;;;;;469.10;119.68;;;;;;;;;;5035970;28;20039;-55
2023/10/06 01:13:14;;;;;;;494.80;119.30;;;;;;;;;;5035725;28;20013;-56
2023/10/06 01:15:48;;;;;;;419.00;117.60;;;;;;;;;;5035325;28;20192;-57
2023/10/06 01:18:20;;;;;;;396.30;116.57;;;;;;;;;;5035964;28;20492;-55
2023/10/06 01:20:46;;;;;;;464.58;119.85;;;;;;;;;;5034832;28;20320;-55
2023/10/06 01:23:20;;;;;;;424.95;116.82;;;;;;;;;;5034695;28;20642;-55
2023/10/06 01:25:46;;;;;;;517.13;122.13;;;;;;;;;;5032619;28;20175;-56
2023/10/06 01:28:12;;;;;;;398.17;117.85;;;;;;;;;;5035850;28;20028;-55
2023/10/06 01:30:37;;;;;;;470.13;120.45;;;;;;;;;;5035066;28;20033;-54
2023/10/06 01:33:04;;;;;;;494.17;118.68;;;;;;;;;;5035493;28;20021;-54
2023/10/06 01:35:33;;;;;;;410.25;118.40;;;;;;;;;;5035382;28;20526;-54
2023/10/06 01:38:00;;;;;;;400.23;116.50;;;;;;;;;;5035670;28;20116;-54
2023/10/06 01:42:57;;;;;;;416.33;116.35;;;;;;;;;;5034591;28;20115;-55
2023/10/06 01:45:22;;;;;;;420.17;116.70;;;;;;;;;;5034690;28;20063;-56
2023/10/06 01:48:49;;;;;;;460.77;120.28;;;;;;;;;;5034885;28;20048;-54
2023/10/06 01:50:44;;;;;;;525.08;124.32;;;;;;;;;;5023852;28;20033;-53
2023/10/06 01:53:18;;;;;;;465.67;118.50;;;;;;;;;;5034585;28;20021;-55
2023/10/06 01:55:43;;;;;;;470.48;121.40;;;;;;;;;;5033766;28;20036;-55
2023/10/06 01:58:11;;;;;;;444.90;122.20;;;;;;;;;;5035628;28;20025;-54
2023/10/06 02:00:37;;;;;;;425.38;118.90;;;;;;;;;;5034248;28;20787;-54
2023/10/06 02:03:10;;;;;;;479.50;119.65;;;;;;;;;;5034742;28;20409;-56
2023/10/06 02:05:38;;;;;;;430.65;121.05;;;;;;;;;;5032949;28;20518;-56
2023/10/06 02:08:04;;;;;;;455.25;121.90;;;;;;;;;;5035122;28;20021;-53
2023/10/06 02:10:32;;;;;;;455.15;122.45;;;;;;;;;;5033945;28;20399;-54
2023/10/06 02:12:57;;;;;;;455.27;121.55;;;;;;;;;;5034594;28;20024;-54
2023/10/06 02:15:23;;;;;;;440.52;121.13;;;;;;;;;;5033896;28;25517;-55
2023/10/06 02:17:50;;;;;;;456.20;121.70;;;;;;;;;;5034133;28;20029;-53
2023/10/06 02:22:51;;;;;;;443.38;107.90;;;;;;;;;;5033518;28;20094;-55
2023/10/06 02:25:17;;;;;;;420.38;109.00;;;;;;;;;;5033443;28;20025;-54
2023/10/06 02:27:47;;;;;;;425.98;108.78;;;;;;;;;;5033591;28;21301;-54
2023/10/06 02:30:15;;;;;;;387.35;108.35;;;;;;;;;;5034923;28;20032;-55
2023/10/06 02:32:41;;;;;;;480.30;112.32;;;;;;;;;;5032887;28;20033;-55
2023/10/06 02:35:07;;;;;;;412.48;109.47;;;;;;;;;;5034077;28;20040;-55
2023/10/06 02:37:33;;;;;;;481.65;113.28;;;;;;;;;;5033909;28;20624;-55
2023/10/06 02:39:58;;;;;;;391.20;109.50;;;;;;;;;;5033968;28;20033;-54
2023/10/06 02:42:25;;;;;;;375.27;108.13;;;;;;;;;;5033928;28;20299;-56
2023/10/06 02:44:51;;;;;;;510.15;115.35;;;;;;;;;;5032840;28;20036;-54
2023/10/06 02:47:17;;;;;;;415.73;113.05;;;;;;;;;;5036803;28;20060;-54
2023/10/06 02:49:49;;;;;;;440.42;115.47;;;;;;;;;;5038189;28;20080;-54
2023/10/06 02:52:29;;;;;;;428.75;114.22;;;;;;;;;;5037874;28;20430;-54
2023/10/06 02:57:34;;;;;;;364.33;111.22;;;;;;;;;;5037580;28;20043;-55
2023/10/06 03:00:28;;;;;;;445.38;115.22;;;;;;;;;;5037686;28;20079;-55
2023/10/06 03:02:45;;;;;;;486.70;119.22;;;;;;;;;;5037084;28;20095;-54
2023/10/06 03:05:12;;;;;;;403.20;114.18;;;;;;;;;;5037096;28;20029;-57
2023/10/06 03:07:38;;;;;;;489.30;118.38;;;;;;;;;;5036231;28;20016;-55
2023/10/06 03:10:08;;;;;;;419.60;114.85;;;;;;;;;;5037758;28;20048;-54
2023/10/06 03:12:33;;;;;;;419.55;115.75;;;;;;;;;;5018584;28;20514;-57
2023/10/06 03:14:59;;;;;;;432.70;116.07;;;;;;;;;;5036437;28;20151;-56
2023/10/06 03:17:24;;;;;;;457.33;116.10;;;;;;;;;;5037068;28;20428;-55
2023/10/06 03:22:40;;;;;;;412.30;116.25;;;;;;;;;;5037229;28;20110;-56
2023/10/06 03:25:16;;;;;;;446.67;118.68;;;;;;;;;;5035808;28;20315;-55
2023/10/06 03:27:42;;;;;;;486.17;118.82;;;;;;;;;;5036116;28;20025;-57
2023/10/06 03:30:33;;;;;;;408.80;116.45;;;;;;;;;;5036865;28;20430;-54
2023/10/06 03:32:53;;;;;;;435.45;117.30;;;;;;;;;;5036051;28;20037;-54
2023/10/06 03:35:23;;;;;;;379.10;114.07;;;;;;;;;;5036458;28;20406;-54
2023/10/06 03:37:51;;;;;;;476.30;119.53;;;;;;;;;;5036451;28;21142;-54
2023/10/06 03:40:35;;;;;;;428.60;116.90;;;;;;;;;;5019612;28;20049;-54
2023/10/06 03:43:05;;;;;;;474.70;120.82;;;;;;;;;;5036400;28;20409;-55
2023/10/06 03:45:32;;;;;;;378.25;114.80;;;;;;;;;;5036204;28;20128;-53
2023/10/06 03:48:13;;;;;;;440.88;117.00;;;;;;;;;;5035313;28;20032;-56
2023/10/06 03:50:39;;;;;;;394.85;115.95;;;;;;;;;;5035140;28;20403;-56
2023/10/06 03:53:07;;;;;;;453.73;115.38;;;;;;;;;;5036154;28;20026;-55
2023/10/06 03:55:33;;;;;;;383.42;113.88;;;;;;;;;;5035614;28;20113;-55
2023/10/06 03:57:59;;;;;;;386.25;113.28;;;;;;;;;;5035111;28;20024;-56
2023/10/06 04:00:26;;;;;;;434.23;115.03;;;;;;;;;;5035643;28;20021;-56
2023/10/06 04:02:52;;;;;;;439.20;115.90;;;;;;;;;;5035412;28;20021;-55
2023/10/06 04:05:18;;;;;;;372.88;112.47;;;;;;;;;;5035386;28;20059;-57
2023/10/06 04:07:45;;;;;;;514.25;118.65;;;;;;;;;;5035101;28;20112;-55
2023/10/06 04:10:14;;;;;;;383.17;113.03;;;;;;;;;;5035628;28;20029;-59
2023/10/06 04:12:39;;;;;;;415.98;116.03;;;;;;;;;;5035440;28;20017;-57
2023/10/06 04:15:05;;;;;;;433.08;115.85;;;;;;;;;;5016443;28;20025;-58
2023/10/06 04:17:30;;;;;;;442.27;117.60;;;;;;;;;;5036126;28;20021;-57
2023/10/06 04:19:55;;;;;;;486.15;118.78;;;;;;;;;;5035723;28;20029;-57
2023/10/06 04:22:21;;;;;;;444.20;116.15;;;;;;;;;;5034192;28;20075;-58
2023/10/06 04:24:46;;;;;;;457.27;116.00;;;;;;;;;;5035486;28;20033;-57
2023/10/06 04:27:11;;;;;;;390.88;114.53;;;;;;;;;;5035895;28;20280;-55
2023/10/06 04:29:39;;;;;;;427.65;117.25;;;;;;;;;;5035914;28;20499;-57
2023/10/06 04:32:04;;;;;;;445.27;117.25;;;;;;;;;;5035801;28;20526;-53
2023/10/06 04:34:35;;;;;;;414.20;115.35;;;;;;;;;;5034993;28;20029;-55
2023/10/06 04:37:01;;;;;;;413.50;116.88;;;;;;;;;;5034243;28;20597;-55
2023/10/06 04:39:26;;;;;;;422.27;116.80;;;;;;;;;;5036897;28;20362;-56
2023/10/06 04:41:53;;;;;;;512.85;121.70;;;;;;;;;;5033871;28;20043;-55
2023/10/06 04:44:18;;;;;;;331.23;113.38;;;;;;;;;;5037591;28;20033;-55
2023/10/06 04:46:43;;;;;;;434.60;116.97;;;;;;;;;;5036550;28;20040;-55
2023/10/06 04:49:08;;;;;;;410.92;115.63;;;;;;;;;;5037880;28;20286;-57
2023/10/06 04:51:36;;;;;;;390.17;114.15;;;;;;;;;;5037629;28;20156;-56
2023/10/06 04:54:02;;;;;;;385.10;116.38;;;;;;;;;;5036725;28;20363;-58
2023/10/06 04:56:32;;;;;;;417.33;116.68;;;;;;;;;;5035258;28;20124;-56
2023/10/06 04:58:57;;;;;;;384.77;116.63;;;;;;;;;;5036619;28;20104;-56
2023/10/06 05:01:23;;;;;;;353.48;113.03;;;;;;;;;;5035945;28;20125;-57
2023/10/06 05:03:48;;;;;;;447.38;118.40;;;;;;;;;;5017565;28;20060;-57
2023/10/06 05:06:15;;;;;;;368.80;117.30;;;;;;;;;;5035837;28;20114;-56
2023/10/06 05:08:41;;;;;;;393.80;118.72;;;;;;;;;;5036165;28;20055;-55
2023/10/06 05:11:06;;;;;;;403.75;117.25;;;;;;;;;;5036005;28;20036;-53
2023/10/06 05:13:32;;;;;;;380.55;115.55;;;;;;;;;;5036247;28;20017;-57
2023/10/06 05:15:58;;;;;;;440.45;118.55;;;;;;;;;;5035906;28;20033;-56
2023/10/06 05:18:24;;;;;;;374.98;115.10;;;;;;;;;;5035832;28;20024;-54
2023/10/06 05:20:52;;;;;;;415.17;118.10;;;;;;;;;;5035281;28;20204;-55
2023/10/06 05:23:17;;;;;;;368.33;114.90;;;;;;;;;;5034694;28;20032;-55
2023/10/06 05:25:44;;;;;;;369.13;114.18;;;;;;;;;;5035948;28;20380;-56
2023/10/06 05:28:16;;;;;;;349.88;112.63;;;;;;;;;;5036773;28;20028;-57
2023/10/06 05:30:41;;;;;;;403.90;113.75;;;;;;;;;;5036283;28;20117;-55
2023/10/06 05:33:07;;;;;;;423.63;114.00;;;;;;;;;;5036692;28;20063;-56
2023/10/06 05:35:38;;;;;;;362.40;113.50;;;;;;;;;;5035732;28;20124;-55
2023/10/06 05:38:03;;;;;;;381.92;112.40;;;;;;;;;;5035721;28;20071;-55
2023/10/06 05:40:29;;;;;;;347.13;111.07;;;;;;;;;;5036604;28;20029;-58
2023/10/06 05:42:54;;;;;;;459.38;117.57;;;;;;;;;;5035710;28;20175;-55
2023/10/06 05:45:20;;;;;;;396.60;114.55;;;;;;;;;;5035963;28;20558;-57
2023/10/06 05:47:45;;;;;;;388.83;114.00;;;;;;;;;;5034837;28;20028;-58
2023/10/06 05:50:11;;;;;;;343.70;111.13;;;;;;;;;;5035943;28;20486;-57
2023/10/06 05:52:39;;;;;;;415.13;113.35;;;;;;;;;;5036235;28;20298;-58
2023/10/06 05:55:12;;;;;;;339.85;111.72;;;;;;;;;;5035158;28;20056;-56
2023/10/06 05:57:43;;;;;;;383.20;112.95;;;;;;;;;;5035501;28;20036;-56
2023/10/06 06:00:09;;;;;;;298.80;107.65;;;;;;;;;;5036501;28;20025;-55
2023/10/06 06:02:37;;;;;;;382.95;106.28;;;;;;;;;;5036484;28;20095;-57
2023/10/06 06:05:04;;;;;;;525.90;112.57;;;;;;;;;;5034434;28;20021;-57
2023/10/06 06:07:29;;;;;;;365.25;106.85;;;;;;;;;;5035489;28;20315;-57
2023/10/06 06:09:54;;;;;;;467.17;110.37;;;;;;;;;;5034528;28;20394;-58
2023/10/06 06:12:21;;;;;;;414.07;107.83;;;;;;;;;;5033565;28;21041;-57
2023/10/06 06:14:46;;;;;;;367.83;106.30;;;;;;;;;;5035090;28;20259;-57
2023/10/06 06:17:12;;;;;;;390.27;106.35;;;;;;;;;;5035411;28;20040;-58
2023/10/06 06:19:39;;;;;;;429.45;108.22;;;;;;;;;;5034109;28;20052;-55
2023/10/06 06:22:05;;;;;;;343.73;105.28;;;;;;;;;;5033330;28;20315;-57
2023/10/06 06:24:31;;;;;;;393.35;105.45;;;;;;;;;;5038753;28;20017;-57
2023/10/06 06:26:56;;;;;;;479.58;108.07;;;;;;;;;;5037707;28;20406;-57
2023/10/06 06:29:22;;;;;;;398.50;102.33;;;;;;;;;;5040621;28;20028;-58
2023/10/06 06:31:49;;;;;;;440.75;103.82;;;;;;;;;;5036605;28;20262;-57
2023/10/06 06:34:16;;;;;;;363.95;101.30;;;;;;;;;;5034517;28;20495;-57
2023/10/06 06:36:42;;;;;;;412.95;100.53;;;;;;;;;;5034701;28;20067;-57
2023/10/06 06:39:10;;;;;;;415.98;99.85;;;;;;;;;;5034931;28;20025;-56
2023/10/06 06:41:35;;;;;;;398.52;98.50;;;;;;;;;;5037319;28;20056;-57
2023/10/06 06:44:01;;;;;;;455.30;101.55;;;;;;;;;;5036137;28;20052;-58
2023/10/06 06:46:26;;;;;;;411.85;97.95;;;;;;;;;;5036837;28;20048;-55
2023/10/06 06:48:52;;;;;;;472.15;98.75;;;;;;;;;;5035415;28;20025;-57
2023/10/06 06:51:18;;;;;;;390.45;95.50;;;;;;;;;;5036156;28;20110;-57
2023/10/06 06:53:43;;;;;;;374.48;93.30;;;;;;;;;;5037410;28;20254;-57
2023/10/06 06:56:10;;;;;;;338.48;89.85;;;;;;;;;;5038454;28;20041;-56
2023/10/06 06:58:37;;;;;;;403.67;89.75;;;;;;;;;;5037994;28;20025;-57
2023/10/06 07:01:05;;;;;;;456.25;89.72;;;;;;;;;;5037067;28;20041;-57
2023/10/06 07:03:30;;;;;;;350.67;84.32;;;;;;;;;;5038661;28;20554;-57
2023/10/06 07:05:56;;;;;;;458.77;86.90;;;;;;;;;;5036428;28;20051;-58
2023/10/06 07:08:21;;;;;;;392.45;81.80;;;;;;;;;;5037258;28;20534;-57
2023/10/06 07:10:52;;;;;;;382.00;80.13;;;;;;;;;;5034551;28;20029;-55
2023/10/06 07:13:17;;;;;;;358.85;78.07;;;;;;;;;;5037439;28;20834;-56
2023/10/06 07:15:42;;;;;;;331.80;75.90;;;;;;;;;;5032903;28;20109;-58
2023/10/06 07:18:10;;;;;;;292.17;73.77;;;;;;;;;;5039331;28;20275;-57
2023/10/06 07:20:35;;;;;;;233.30;68.38;;;;;;;;;;5040089;28;20287;-57
2023/10/06 07:23:01;;;;;;;416.87;72.40;;;;;;;;;;5038945;28;20017;-57
2023/10/06 07:25:26;;;;;;;276.70;67.45;;;;;;;;;;5039962;28;20646;-59
2023/10/06 07:27:53;;;;;;;279.42;66.25;;;;;;;;;;5038743;28;20025;-58
2023/10/06 07:30:22;;;;;;;285.38;63.45;;;;;;;;;;5038301;28;20109;-57
2023/10/06 07:32:47;;;;;;;209.77;59.03;;;;;;;;;;5040963;28;20107;-58
2023/10/06 07:35:17;;;;;;;213.85;56.80;;;;;;;;;;5023630;28;20104;-57
2023/10/06 07:37:43;;;;;;;199.30;54.95;;;;;;;;;;5041967;28;20374;-58
2023/10/06 07:40:13;;;;;;;214.88;55.67;;;;;;;;;;5040316;28;20505;-57
2023/10/06 07:42:49;;;;;;;261.10;55.33;;;;;;;;;;5040781;28;20036;-56
2023/10/06 07:45:16;;;;;;;215.52;51.10;;;;;;;;;;5041737;28;20191;-58
2023/10/06 07:47:44;;;;;;;189.00;49.13;;;;;;;;;;5043017;28;20116;-59
2023/10/06 07:50:13;;;;;;;191.45;46.25;;;;;;;;;;5041090;28;20017;-59
2023/10/06 07:52:38;;;;;;;207.60;46.92;;;;;;;;;;5042002;28;20013;-58
2023/10/06 07:55:09;;;;;;;273.20;48.00;;;;;;;;;;5039884;28;20021;-59
2023/10/06 07:57:36;;;;;;;189.65;45.15;;;;;;;;;;5040050;28;20049;-59
2023/10/06 08:00:06;;;;;;;257.10;46.10;;;;;;;;;;5040946;28;20053;-59
2023/10/06 08:02:38;;;;;;;311.27;103.63;;;;;;;;;;5039950;28;20079;-57
2023/10/06 08:05:06;;;;;;;253.10;44.78;;;;;;;;;;5041583;28;20025;-58
2023/10/06 08:07:31;;;;;;;171.60;40.28;;;;;;;;;;5041201;28;20049;-58
2023/10/06 08:09:58;;;;;;;222.20;42.30;;;;;;;;;;5041884;28;20456;-58
2023/10/06 08:12:23;;;;;;;180.27;40.30;;;;;;;;;;5041974;28;20048;-58
2023/10/06 08:14:49;;;;;;;181.37;40.53;;;;;;;;;;5040704;28;20017;-56
2023/10/06 08:17:14;;;;;;;298.33;41.35;;;;;;;;;;5034853;28;20033;-57
2023/10/06 08:19:40;;;;;;;227.83;40.43;;;;;;;;;;5039018;28;20486;-56
2023/10/06 08:22:06;;;;;;;280.97;43.33;;;;;;;;;;5037096;28;20259;-58
2023/10/06 08:24:31;;;;;;;331.52;43.33;;;;;;;;;;5038154;28;20192;-59
2023/10/06 08:26:57;;;;;;;562.67;315.27;;;;;;;;;;5037187;28;20579;-58
2023/10/06 08:29:23;;;;;;;250.30;38.17;;;;;;;;;;5039129;28;20021;-59
2023/10/06 08:31:48;;;;;;;361.38;40.70;;;;;;;;;;5037091;28;20029;-59
2023/10/06 08:34:14;;;;;;;265.03;35.17;;;;;;;;;;5035344;28;20032;-58
2023/10/06 08:36:41;;;;;;;236.63;32.63;;;;;;;;;;5034432;28;20443;-58
2023/10/06 08:39:08;;;;;;;329.20;43.83;;;;;;;;;;5033954;28;20028;-57
2023/10/06 08:41:35;;;;;;;337.58;115.90;;;;;;;;;;5035881;28;20040;-58
2023/10/06 08:44:01;;;;;;;313.40;39.45;;;;;;;;;;5034969;28;20160;-57
2023/10/06 08:46:27;;;;;;;298.25;43.35;;;;;;;;;;5035269;28;20143;-58
2023/10/06 08:48:53;;;;;;;268.85;44.50;;;;;;;;;;5034913;28;20072;-58
2023/10/06 08:51:22;;;;;;;281.25;48.78;;;;;;;;;;5034357;28;20063;-59
2023/10/06 08:53:49;;;;;;;271.23;49.83;;;;;;;;;;5036216;28;20019;-58
2023/10/06 08:56:15;;;;;;;245.77;51.22;;;;;;;;;;5035087;28;20055;-59
2023/10/06 08:58:41;;;;;;;257.38;50.28;;;;;;;;;;5036346;28;20035;-59
2023/10/06 09:01:07;;;;;;;286.42;52.13;;;;;;;;;;5034197;28;20511;-59
2023/10/06 09:03:32;;;;;;;292.60;51.25;;;;;;;;;;5037422;28;20476;-59
2023/10/06 09:05:57;;;;;;;483.67;71.10;;;;;;;;;;5034897;28;20043;-59
2023/10/06 09:08:23;;;;;;;265.77;56.53;;;;;;;;;;5038175;28;20641;-58
2023/10/06 09:10:54;;;;;;;282.30;48.95;;;;;;;;;;5037697;28;20382;-59
2023/10/06 09:13:20;;;;;;;293.13;48.47;;;;;;;;;;5036671;28;20219;-60
2023/10/06 09:15:59;;;;;;;262.58;46.50;;;;;;;;;;5036991;28;20374;-57
2023/10/06 09:18:28;;;;;;;284.50;47.45;;;;;;;;;;5036162;28;20515;-59
2023/10/06 09:20:54;;;;;;;244.52;45.90;;;;;;;;;;5036175;28;20107;-58
2023/10/06 09:23:32;;;;;;;308.05;48.17;;;;;;;;;;5018888;28;20114;-60
2023/10/06 09:26:00;;;;;;;291.58;50.13;;;;;;;;;;5035835;28;20037;-57
2023/10/06 09:28:26;;;;;;;230.05;53.63;;;;;;;;;;5037588;28;20100;-58
2023/10/06 09:30:57;;;;;;;268.80;51.10;;;;;;;;;;5037068;28;20039;-60
2023/10/06 09:33:41;;;;;;;286.83;53.60;;;;;;;;;;5036879;28;20025;-58
2023/10/06 09:36:08;;;;;;;351.05;59.33;;;;;;;;;;5036072;28;20035;-57
2023/10/06 09:38:44;;;;;;;211.27;54.70;;;;;;;;;;5036399;28;20378;-58
2023/10/06 09:41:10;;;;;;;403.77;61.45;;;;;;;;;;5035350;28;20033;-57
2023/10/06 09:43:38;;;;;;;316.98;56.38;;;;;;;;;;5036458;28;20032;-58
2023/10/06 09:46:06;;;;;;;397.10;113.15;;;;;;;;;;5035290;28;20033;-57
2023/10/06 09:48:35;;;;;;;302.73;53.45;;;;;;;;;;5035678;28;20021;-55
2023/10/06 09:51:05;;;;;;;287.08;52.95;;;;;;;;;;5035515;28;20048;-56
2023/10/06 09:53:37;;;;;;;200.50;50.15;;;;;;;;;;5036496;28;20069;-57
2023/10/06 09:56:04;;;;;;;360.77;54.83;;;;;;;;;;5034411;28;20033;-58
2023/10/06 09:58:30;;;;;;;270.88;65.80;;;;;;;;;;5037352;28;20239;-58
2023/10/06 10:00:56;;;;;;;262.17;51.42;;;;;;;;;;5017642;28;20511;-56
2023/10/06 10:03:22;;;;;;;453.85;236.02;;;;;;;;;;5035935;28;20072;-58
2023/10/06 10:05:48;;;;;;;283.67;52.20;;;;;;;;;;5035177;28;20467;-57
2023/10/06 10:08:13;;;;;;;313.55;52.40;;;;;;;;;;5036620;28;20023;-58
2023/10/06 10:10:40;;;;;;;338.85;52.70;;;;;;;;;;5036248;28;20041;-57
2023/10/06 10:13:08;;;;;;;379.25;63.72;;;;;;;;;;5034883;28;20025;-57
2023/10/06 10:15:39;;;;;;;257.15;52.88;;;;;;;;;;5035175;28;20147;-59
2023/10/06 10:18:33;;;;;;;641.55;409.50;;;;;;;;;;5033612;28;20428;-58
2023/10/06 10:20:59;;;;;;;282.83;53.92;;;;;;;;;;5021331;28;20037;-57
2023/10/06 10:23:31;;;;;;;217.57;49.95;;;;;;;;;;5035527;28;20033;-58
2023/10/06 10:26:18;;;;;;;345.92;127.13;;;;;;;;;;5035316;28;20025;-58
2023/10/06 10:28:44;;;;;;;205.85;50.80;;;;;;;;;;5037141;28;20025;-57
2023/10/06 10:31:17;;;;;;;316.38;44.92;;;;;;;;;;5035758;28;20033;-57
2023/10/06 10:33:43;;;;;;;338.85;87.45;;;;;;;;;;5035674;28;20037;-58
2023/10/06 10:36:08;;;;;;;450.90;120.15;;;;;;;;;;5034245;28;20025;-58
2023/10/06 10:38:34;;;;;;;328.13;49.20;;;;;;;;;;5036138;28;20017;-58
2023/10/06 10:41:01;;;;;;;339.67;49.83;;;;;;;;;;5033995;28;20032;-58
2023/10/06 10:43:27;;;;;;;201.55;45.72;;;;;;;;;;5038204;28;20100;-57
2023/10/06 10:45:54;;;;;;;285.02;49.47;;;;;;;;;;5036987;28;20643;-59
2023/10/06 10:48:21;;;;;;;228.48;64.72;;;;;;;;;;5037558;28;20025;-58
2023/10/06 10:50:53;;;;;;;310.27;56.55;;;;;;;;;;5036325;28;20064;-58
2023/10/06 10:53:18;;;;;;;288.67;50.38;;;;;;;;;;5033376;28;22073;-57
2023/10/06 10:55:45;;;;;;;194.98;47.38;;;;;;;;;;5035046;28;20037;-57
2023/10/06 10:58:10;;;;;;;421.63;58.55;;;;;;;;;;5033612;28;20020;-56
2023/10/06 11:00:36;;;;;;;280.60;48.90;;;;;;;;;;5033888;28;20033;-58
2023/10/06 11:03:03;;;;;;;306.73;50.57;;;;;;;;;;5033283;28;20394;-57
2023/10/06 11:05:28;;;;;;;279.20;52.78;;;;;;;;;;5034212;28;20091;-57
2023/10/06 11:07:57;;;;;;;281.88;51.85;;;;;;;;;;5037629;28;20017;-58
2023/10/06 11:10:23;;;;;;;225.18;50.78;;;;;;;;;;5037749;28;20016;-58
2023/10/06 11:12:50;;;;;;;329.23;55.42;;;;;;;;;;5038722;28;20013;-58
2023/10/06 11:15:26;;;;;;;412.85;65.03;;;;;;;;;;5036097;28;20397;-56
2023/10/06 11:17:54;;;;;;;300.40;56.05;;;;;;;;;;5037233;28;20667;-59
2023/10/06 11:20:24;;;;;;;305.35;57.80;;;;;;;;;;5036194;28;20044;-59
2023/10/06 11:23:00;;;;;;;251.32;54.92;;;;;;;;;;5037782;28;20029;-58
2023/10/06 11:25:29;;;;;;;314.55;57.50;;;;;;;;;;5037957;28;20037;-58
2023/10/06 11:28:04;;;;;;;242.57;59.35;;;;;;;;;;5038090;28;20723;-58
2023/10/06 11:30:32;;;;;;;270.38;58.28;;;;;;;;;;5037044;28;20024;-58
2023/10/06 11:32:59;;;;;;;229.20;58.47;;;;;;;;;;5036658;28;20135;-58
2023/10/06 11:35:24;;;;;;;289.05;59.55;;;;;;;;;;5034910;28;20013;-59
2023/10/06 11:37:50;;;;;;;321.33;60.33;;;;;;;;;;5037534;28;20024;-59
2023/10/06 11:40:16;;;;;;;411.73;66.35;;;;;;;;;;5035920;28;20342;-57
2023/10/06 11:42:41;;;;;;;274.00;60.15;;;;;;;;;;5038311;28;20874;-58
2023/10/06 11:45:23;;;;;;;481.43;68.27;;;;;;;;;;5035031;28;20037;-58
2023/10/06 11:47:49;;;;;;;271.27;58.92;;;;;;;;;;5038097;28;20752;-57
2023/10/06 11:50:21;;;;;;;440.77;69.60;;;;;;;;;;5035658;28;20528;-59
2023/10/06 11:52:48;;;;;;;291.70;60.88;;;;;;;;;;5038569;28;20295;-58
2023/10/06 11:55:21;;;;;;;423.73;67.43;;;;;;;;;;5034702;28;20405;-58
2023/10/06 11:57:47;;;;;;;339.65;63.50;;;;;;;;;;5036571;28;20028;-59
2023/10/06 12:00:18;;;;;;;385.98;65.60;;;;;;;;;;5036688;28;20025;-60
2023/10/06 12:02:44;;;;;;;273.03;60.60;;;;;;;;;;5038906;28;20029;-57
2023/10/06 12:05:10;;;;;;;606.30;113.25;;;;;;;;;;5036933;28;20025;-58
2023/10/06 12:13:57;;;;;;;181.45;15.75;;;;;;;;;;5102371;27;20396;-60
2023/10/06 12:16:23;;;;;;;166.47;7.43;;;;;;;;;;5053592;28;20059;-59
2023/10/06 14:26:59;;;;;;;285.38;12.15;;;;;;;19.40;53.84;98665.84;5008526;28;20410;-59
2023/10/06 14:29:26;;;;;;;306.17;28.52;;;;;;;19.97;48.84;98663.28;5003539;28;20033;-58
2023/10/06 14:32:18;;;;;;;347.65;117.55;;;;;;;20.08;48.92;98657.69;5015341;28;20041;-59
2023/10/06 14:34:58;;;;;;;250.18;9.63;;;;;;;-148.24;100.00;61531.34;4998980;28;20045;-57
2023/10/06 14:37:53;;;;;;;773.13;257.55;;;;;;;-148.24;100.00;61531.34;4999460;28;20525;-58
2023/10/06 14:45:59;;;;;;;213.20;9.38;;;;;;;-148.24;100.00;61531.34;5002334;28;20568;-57
2023/10/06 14:48:27;;;;;;;418.00;22.02;;;;;;;-148.24;100.00;61531.34;5003861;28;20104;-57
2023/10/06 14:51:02;;;;;;;286.58;11.27;;;;;;;-148.24;100.00;61531.34;5002847;28;20085;-58
2023/10/06 14:53:28;;;;;;;310.85;12.70;;;;;;;-148.24;100.00;61531.34;5000876;28;20608;-57
2023/10/06 14:55:57;;;;;;;196.40;9.07;;;;;;;-148.24;100.00;61531.34;5000352;28;20129;-58
2023/10/06 14:58:22;;;;;;;336.10;19.45;;;;;;;-148.24;100.00;61531.34;5000618;28;20036;-56
2023/10/06 15:00:48;;;;;;;232.85;10.07;;;;;;;-148.24;100.00;61531.34;5001098;28;20520;-56
2023/10/06 15:03:18;;;;;;;214.65;9.65;;;;;;;-148.24;100.00;61531.34;5001949;28;20072;-57
2023/10/06 15:05:48;;;;;;;226.77;9.38;;;;;;;-148.24;100.00;61531.34;5003368;28;20157;-57
2023/10/06 15:08:14;;;;;;;327.17;12.70;;;;;;;-148.24;100.00;61531.34;4999938;28;20033;-56
2023/10/06 15:10:43;;;;;;;263.52;10.18;;;;;;;-148.24;100.00;61531.34;5000903;28;20407;-59
2023/10/06 15:13:13;;;;;;;257.60;10.75;;;;;;;-148.24;100.00;61531.34;4999345;28;20064;-57
2023/10/06 15:15:44;;;;;;;233.77;10.13;;;;;;;-148.24;100.00;61531.34;4998977;28;20033;-58
2023/10/06 15:18:19;;;;;;;191.02;8.98;;;;;;;-148.24;100.00;61531.34;5001102;28;20034;-56
2023/10/06 15:20:47;;;;;;;273.10;11.77;;;;;;;-148.24;100.00;61531.34;5000814;28;20034;-58
2023/10/06 15:23:17;;;;;;;255.10;11.07;;;;;;;-148.24;100.00;61531.34;5004788;28;20037;-57
2023/10/06 15:25:53;;;;;;;176.02;8.95;;;;;;;-148.24;100.00;61531.34;4999077;28;20488;-55
2023/10/06 15:28:18;;;;;;;255.27;12.20;;;;;;;-148.24;100.00;61531.34;5000725;28;20026;-57
2023/10/06 15:30:44;;;;;;;199.05;9.52;;;;;;;-148.24;100.00;61531.34;5001918;28;20048;-58
2023/10/06 15:33:09;;;;;;;350.40;13.88;;;;;;;-148.24;100.00;61531.34;4999854;28;20037;-54
2023/10/06 15:35:36;;;;;;;229.52;10.25;;;;;;;-148.24;100.00;61531.34;4998160;28;20042;-57
2023/10/06 15:38:10;;;;;;;257.65;11.82;;;;;;;-148.24;100.00;61531.34;4989552;28;20072;-58
2023/10/06 15:40:37;;;;;;;216.73;9.88;;;;;;;-148.24;100.00;61531.34;4986872;28;20053;-58
2023/10/06 15:43:04;;;;;;;188.38;9.32;;;;;;;-148.24;100.00;61531.34;4988496;28;20056;-56
2023/10/06 15:45:29;;;;;;;228.73;11.13;;;;;;;-148.24;100.00;61531.34;4985332;28;20077;-56
2023/10/06 15:47:56;;;;;;;192.32;9.43;;;;;;;-148.24;100.00;61531.34;4987639;28;20029;-55
2023/10/06 15:50:26;;;;;;;272.85;13.45;;;;;;;-148.24;100.00;61531.34;4986157;28;20088;-57
2023/10/06 15:52:51;;;;;;;265.77;11.60;;;;;;;-148.24;100.00;61531.34;4988384;28;20517;-55
2023/10/06 15:55:16;;;;;;;225.52;10.18;;;;;;;-148.24;100.00;61531.34;4987848;28;20030;-60
2023/10/06 15:57:42;;;;;;;219.77;10.30;;;;;;;-148.24;100.00;61531.34;4988423;28;20021;-58
2023/10/06 16:00:10;;;;;;;206.77;9.65;;;;;;;-148.24;100.00;61531.34;4986387;28;20378;-56
2023/10/06 16:02:38;;;;;;;184.45;9.20;;;;;;;-148.24;100.00;61531.34;4988696;28;20042;-56
2023/10/06 16:05:04;;;;;;;132.20;7.78;;;;;;;-148.24;100.00;61531.34;4989454;28;20661;-58